sensor_id;sensor_type;location;lat;lon;timestamp;P1;durP1;ratioP1;P2;durP2;ratioP2
3379;SDS011;1703;51.964;7.642;2023-08-31T00:02:08;8.40;;;4.17;;
3379;SDS011;1703;51.964;7.642;2023-08-31T00:04:35;5.23;;;4.30;;
3379;SDS011;1703;51.964;7.642;2023-08-31T00:07:01;5.07;;;3.80;;
3379;SDS011;1703;51.964;7.642;2023-08-31T00:09:28;6.80;;;4.10;;
3379;SDS011;1703;51.964;7.642;2023-08-31T00:11:56;8.23;;;5.20;;
3379;SDS011;1703;51.964;7.642;2023-08-31T00:14:23;9.47;;;4.77;;
3379;SDS011;1703;51.964;7.642;2023-08-31T00:16:51;12.30;;;5.50;;
3379;SDS011;1703;51.964;7.642;2023-08-31T00:19:18;5.33;;;4.70;;
3379;SDS011;1703;51.964;7.642;2023-08-31T00:21:45;10.77;;;4.70;;
3379;SDS011;1703;51.964;7.642;2023-08-31T00:24:13;7.17;;;4.90;;
3379;SDS011;1703;51.964;7.642;2023-08-31T00:26:40;10.87;;;5.67;;
3379;SDS011;1703;51.964;7.642;2023-08-31T00:29:08;5.07;;;3.67;;
3379;SDS011;1703;51.964;7.642;2023-08-31T00:31:37;8.47;;;4.77;;
3379;SDS011;1703;51.964;7.642;2023-08-31T00:34:05;5.97;;;4.53;;
3379;SDS011;1703;51.964;7.642;2023-08-31T00:36:32;9.23;;;4.60;;
3379;SDS011;1703;51.964;7.642;2023-08-31T00:39:02;7.83;;;5.60;;
3379;SDS011;1703;51.964;7.642;2023-08-31T00:41:32;5.57;;;4.50;;
3379;SDS011;1703;51.964;7.642;2023-08-31T00:43:59;5.40;;;4.87;;
3379;SDS011;1703;51.964;7.642;2023-08-31T00:46:28;6.77;;;5.20;;
3379;SDS011;1703;51.964;7.642;2023-08-31T00:48:56;7.23;;;4.67;;
3379;SDS011;1703;51.964;7.642;2023-08-31T00:51:23;12.23;;;6.57;;
3379;SDS011;1703;51.964;7.642;2023-08-31T00:53:51;5.27;;;4.17;;
3379;SDS011;1703;51.964;7.642;2023-08-31T00:56:18;7.43;;;4.60;;
3379;SDS011;1703;51.964;7.642;2023-08-31T00:58:46;8.90;;;5.97;;
3379;SDS011;1703;51.964;7.642;2023-08-31T01:01:15;13.10;;;6.80;;
3379;SDS011;1703;51.964;7.642;2023-08-31T01:03:55;11.27;;;5.10;;
3379;SDS011;1703;51.964;7.642;2023-08-31T01:06:33;5.33;;;4.57;;
3379;SDS011;1703;51.964;7.642;2023-08-31T01:09:10;8.43;;;5.50;;
3379;SDS011;1703;51.964;7.642;2023-08-31T01:11:45;8.50;;;5.43;;
3379;SDS011;1703;51.964;7.642;2023-08-31T01:14:23;8.53;;;4.70;;
3379;SDS011;1703;51.964;7.642;2023-08-31T01:16:51;9.93;;;5.13;;
3379;SDS011;1703;51.964;7.642;2023-08-31T01:19:27;13.90;;;6.03;;
3379;SDS011;1703;51.964;7.642;2023-08-31T01:22:07;7.70;;;5.80;;
3379;SDS011;1703;51.964;7.642;2023-08-31T01:24:39;8.43;;;5.00;;
3379;SDS011;1703;51.964;7.642;2023-08-31T01:27:07;7.47;;;5.67;;
3379;SDS011;1703;51.964;7.642;2023-08-31T01:29:34;10.47;;;6.20;;
3379;SDS011;1703;51.964;7.642;2023-08-31T01:32:04;8.50;;;6.30;;
3379;SDS011;1703;51.964;7.642;2023-08-31T01:34:32;15.83;;;6.53;;
3379;SDS011;1703;51.964;7.642;2023-08-31T01:37:00;13.20;;;6.00;;
3379;SDS011;1703;51.964;7.642;2023-08-31T01:39:33;7.17;;;6.20;;
3379;SDS011;1703;51.964;7.642;2023-08-31T01:42:05;8.23;;;5.63;;
3379;SDS011;1703;51.964;7.642;2023-08-31T01:44:32;10.40;;;6.07;;
3379;SDS011;1703;51.964;7.642;2023-08-31T01:47:02;8.33;;;5.63;;
3379;SDS011;1703;51.964;7.642;2023-08-31T01:49:35;6.07;;;5.57;;
3379;SDS011;1703;51.964;7.642;2023-08-31T01:52:02;9.73;;;6.10;;
3379;SDS011;1703;51.964;7.642;2023-08-31T01:54:29;6.23;;;5.63;;
3379;SDS011;1703;51.964;7.642;2023-08-31T01:56:56;6.00;;;4.80;;
3379;SDS011;1703;51.964;7.642;2023-08-31T01:59:25;13.53;;;5.67;;
3379;SDS011;1703;51.964;7.642;2023-08-31T02:01:52;12.50;;;5.20;;
3379;SDS011;1703;51.964;7.642;2023-08-31T02:04:19;4.90;;;4.07;;
3379;SDS011;1703;51.964;7.642;2023-08-31T02:06:46;9.83;;;7.27;;
3379;SDS011;1703;51.964;7.642;2023-08-31T02:09:13;6.07;;;4.47;;
3379;SDS011;1703;51.964;7.642;2023-08-31T02:11:40;6.27;;;4.60;;
3379;SDS011;1703;51.964;7.642;2023-08-31T02:14:07;11.40;;;4.40;;
3379;SDS011;1703;51.964;7.642;2023-08-31T02:16:35;7.37;;;4.13;;
3379;SDS011;1703;51.964;7.642;2023-08-31T02:19:02;11.90;;;4.53;;
3379;SDS011;1703;51.964;7.642;2023-08-31T02:21:28;6.03;;;4.00;;
3379;SDS011;1703;51.964;7.642;2023-08-31T02:23:55;8.30;;;4.37;;
3379;SDS011;1703;51.964;7.642;2023-08-31T02:26:22;5.57;;;3.10;;
3379;SDS011;1703;51.964;7.642;2023-08-31T02:28:49;5.87;;;4.30;;
3379;SDS011;1703;51.964;7.642;2023-08-31T02:31:16;6.63;;;4.70;;
3379;SDS011;1703;51.964;7.642;2023-08-31T02:33:45;5.03;;;4.03;;
3379;SDS011;1703;51.964;7.642;2023-08-31T02:36:12;3.83;;;3.50;;
3379;SDS011;1703;51.964;7.642;2023-08-31T02:38:41;4.00;;;3.60;;
3379;SDS011;1703;51.964;7.642;2023-08-31T02:41:08;7.37;;;3.97;;
3379;SDS011;1703;51.964;7.642;2023-08-31T02:47:23;6.00;;;3.57;;
3379;SDS011;1703;51.964;7.642;2023-08-31T02:49:51;5.33;;;3.87;;
3379;SDS011;1703;51.964;7.642;2023-08-31T02:52:18;6.30;;;3.80;;
3379;SDS011;1703;51.964;7.642;2023-08-31T02:54:45;7.10;;;4.27;;
3379;SDS011;1703;51.964;7.642;2023-08-31T02:57:12;4.03;;;3.60;;
3379;SDS011;1703;51.964;7.642;2023-08-31T02:59:40;4.80;;;4.03;;
3379;SDS011;1703;51.964;7.642;2023-08-31T03:02:08;6.87;;;4.70;;
3379;SDS011;1703;51.964;7.642;2023-08-31T03:04:35;6.30;;;4.00;;
3379;SDS011;1703;51.964;7.642;2023-08-31T03:07:04;7.30;;;4.73;;
3379;SDS011;1703;51.964;7.642;2023-08-31T03:09:32;13.57;;;5.50;;
3379;SDS011;1703;51.964;7.642;2023-08-31T03:11:58;14.17;;;5.80;;
3379;SDS011;1703;51.964;7.642;2023-08-31T03:14:25;7.43;;;5.13;;
3379;SDS011;1703;51.964;7.642;2023-08-31T03:16:52;9.70;;;5.83;;
3379;SDS011;1703;51.964;7.642;2023-08-31T03:19:19;9.27;;;7.23;;
3379;SDS011;1703;51.964;7.642;2023-08-31T03:21:46;7.17;;;5.30;;
3379;SDS011;1703;51.964;7.642;2023-08-31T03:24:15;9.70;;;6.27;;
3379;SDS011;1703;51.964;7.642;2023-08-31T03:26:42;9.23;;;5.93;;
3379;SDS011;1703;51.964;7.642;2023-08-31T03:29:08;7.80;;;5.03;;
3379;SDS011;1703;51.964;7.642;2023-08-31T03:31:36;7.63;;;5.63;;
3379;SDS011;1703;51.964;7.642;2023-08-31T03:34:03;11.13;;;6.70;;
3379;SDS011;1703;51.964;7.642;2023-08-31T03:36:30;7.70;;;5.77;;
3379;SDS011;1703;51.964;7.642;2023-08-31T03:38:57;12.90;;;7.13;;
3379;SDS011;1703;51.964;7.642;2023-08-31T03:41:25;8.40;;;5.90;;
3379;SDS011;1703;51.964;7.642;2023-08-31T03:43:52;15.80;;;6.87;;
3379;SDS011;1703;51.964;7.642;2023-08-31T03:46:21;8.93;;;6.80;;
3379;SDS011;1703;51.964;7.642;2023-08-31T03:48:49;11.50;;;7.83;;
3379;SDS011;1703;51.964;7.642;2023-08-31T03:51:16;21.57;;;8.70;;
3379;SDS011;1703;51.964;7.642;2023-08-31T03:53:44;16.40;;;8.17;;
3379;SDS011;1703;51.964;7.642;2023-08-31T03:56:11;10.80;;;8.37;;
3379;SDS011;1703;51.964;7.642;2023-08-31T03:58:40;13.33;;;8.90;;
3379;SDS011;1703;51.964;7.642;2023-08-31T04:01:07;11.60;;;8.10;;
3379;SDS011;1703;51.964;7.642;2023-08-31T04:03:36;11.77;;;7.90;;
3379;SDS011;1703;51.964;7.642;2023-08-31T04:06:03;9.80;;;8.77;;
3379;SDS011;1703;51.964;7.642;2023-08-31T04:08:30;15.97;;;9.53;;
3379;SDS011;1703;51.964;7.642;2023-08-31T04:10:57;9.27;;;8.37;;
3379;SDS011;1703;51.964;7.642;2023-08-31T04:13:25;15.80;;;9.20;;
3379;SDS011;1703;51.964;7.642;2023-08-31T04:15:53;14.10;;;9.10;;
3379;SDS011;1703;51.964;7.642;2023-08-31T04:18:20;10.77;;;9.03;;
3379;SDS011;1703;51.964;7.642;2023-08-31T04:20:48;12.03;;;10.27;;
3379;SDS011;1703;51.964;7.642;2023-08-31T04:23:17;12.40;;;9.53;;
3379;SDS011;1703;51.964;7.642;2023-08-31T04:25:43;15.30;;;10.70;;
3379;SDS011;1703;51.964;7.642;2023-08-31T04:28:10;14.00;;;10.40;;
3379;SDS011;1703;51.964;7.642;2023-08-31T04:30:38;11.57;;;9.20;;
3379;SDS011;1703;51.964;7.642;2023-08-31T04:33:07;14.43;;;10.07;;
3379;SDS011;1703;51.964;7.642;2023-08-31T04:35:34;14.43;;;9.87;;
3379;SDS011;1703;51.964;7.642;2023-08-31T04:38:00;18.53;;;9.43;;
3379;SDS011;1703;51.964;7.642;2023-08-31T04:40:27;11.57;;;8.33;;
3379;SDS011;1703;51.964;7.642;2023-08-31T04:42:54;11.43;;;10.23;;
3379;SDS011;1703;51.964;7.642;2023-08-31T04:45:21;15.83;;;10.77;;
3379;SDS011;1703;51.964;7.642;2023-08-31T04:47:48;14.50;;;10.80;;
3379;SDS011;1703;51.964;7.642;2023-08-31T04:50:17;14.10;;;9.87;;
3379;SDS011;1703;51.964;7.642;2023-08-31T04:52:44;13.40;;;11.47;;
3379;SDS011;1703;51.964;7.642;2023-08-31T04:55:12;15.03;;;11.03;;
3379;SDS011;1703;51.964;7.642;2023-08-31T04:57:39;11.73;;;10.50;;
3379;SDS011;1703;51.964;7.642;2023-08-31T05:00:06;27.17;;;13.87;;
3379;SDS011;1703;51.964;7.642;2023-08-31T05:02:35;16.40;;;12.93;;
3379;SDS011;1703;51.964;7.642;2023-08-31T05:05:02;17.40;;;13.80;;
3379;SDS011;1703;51.964;7.642;2023-08-31T05:07:30;18.30;;;12.63;;
3379;SDS011;1703;51.964;7.642;2023-08-31T05:09:57;15.83;;;14.13;;
3379;SDS011;1703;51.964;7.642;2023-08-31T05:12:24;20.90;;;13.87;;
3379;SDS011;1703;51.964;7.642;2023-08-31T05:14:51;16.80;;;15.00;;
3379;SDS011;1703;51.964;7.642;2023-08-31T05:17:17;26.40;;;14.70;;
3379;SDS011;1703;51.964;7.642;2023-08-31T05:19:44;20.73;;;14.70;;
3379;SDS011;1703;51.964;7.642;2023-08-31T05:22:12;20.40;;;16.90;;
3379;SDS011;1703;51.964;7.642;2023-08-31T05:24:40;19.73;;;16.63;;
3379;SDS011;1703;51.964;7.642;2023-08-31T05:27:07;24.20;;;17.20;;
3379;SDS011;1703;51.964;7.642;2023-08-31T05:29:34;20.20;;;16.30;;
3379;SDS011;1703;51.964;7.642;2023-08-31T05:32:01;21.73;;;16.37;;
3379;SDS011;1703;51.964;7.642;2023-08-31T05:34:28;19.80;;;15.50;;
3379;SDS011;1703;51.964;7.642;2023-08-31T05:36:55;21.00;;;16.33;;
3379;SDS011;1703;51.964;7.642;2023-08-31T05:39:22;26.97;;;19.20;;
3379;SDS011;1703;51.964;7.642;2023-08-31T05:41:50;20.70;;;16.60;;
3379;SDS011;1703;51.964;7.642;2023-08-31T05:44:17;22.63;;;17.93;;
3379;SDS011;1703;51.964;7.642;2023-08-31T05:46:44;20.50;;;16.30;;
3379;SDS011;1703;51.964;7.642;2023-08-31T05:49:10;19.60;;;14.80;;
3379;SDS011;1703;51.964;7.642;2023-08-31T05:51:37;17.90;;;15.63;;
3379;SDS011;1703;51.964;7.642;2023-08-31T05:54:04;18.30;;;15.50;;
3379;SDS011;1703;51.964;7.642;2023-08-31T05:56:35;19.93;;;17.27;;
3379;SDS011;1703;51.964;7.642;2023-08-31T05:59:04;21.53;;;15.30;;
3379;SDS011;1703;51.964;7.642;2023-08-31T06:01:31;18.17;;;15.60;;
3379;SDS011;1703;51.964;7.642;2023-08-31T06:03:57;21.43;;;14.90;;
3379;SDS011;1703;51.964;7.642;2023-08-31T06:06:24;20.27;;;16.83;;
3379;SDS011;1703;51.964;7.642;2023-08-31T06:08:51;29.30;;;17.03;;
3379;SDS011;1703;51.964;7.642;2023-08-31T06:11:18;24.43;;;16.87;;
3379;SDS011;1703;51.964;7.642;2023-08-31T06:13:46;24.13;;;17.03;;
3379;SDS011;1703;51.964;7.642;2023-08-31T06:16:14;22.30;;;18.33;;
3379;SDS011;1703;51.964;7.642;2023-08-31T06:18:41;20.50;;;16.10;;
3379;SDS011;1703;51.964;7.642;2023-08-31T06:21:08;27.23;;;18.47;;
3379;SDS011;1703;51.964;7.642;2023-08-31T06:23:35;31.07;;;19.83;;
3379;SDS011;1703;51.964;7.642;2023-08-31T06:26:02;22.70;;;18.70;;
3379;SDS011;1703;51.964;7.642;2023-08-31T06:28:29;23.60;;;21.03;;
3379;SDS011;1703;51.964;7.642;2023-08-31T06:30:56;25.70;;;20.20;;
3379;SDS011;1703;51.964;7.642;2023-08-31T06:33:24;38.17;;;20.97;;
3379;SDS011;1703;51.964;7.642;2023-08-31T06:35:51;30.87;;;22.97;;
3379;SDS011;1703;51.964;7.642;2023-08-31T06:38:18;32.27;;;22.67;;
3379;SDS011;1703;51.964;7.642;2023-08-31T06:40:44;36.80;;;22.90;;
3379;SDS011;1703;51.964;7.642;2023-08-31T06:43:12;32.00;;;24.60;;
3379;SDS011;1703;51.964;7.642;2023-08-31T06:45:39;31.93;;;23.97;;
3379;SDS011;1703;51.964;7.642;2023-08-31T06:48:06;27.17;;;21.90;;
3379;SDS011;1703;51.964;7.642;2023-08-31T06:50:35;37.20;;;25.97;;
3379;SDS011;1703;51.964;7.642;2023-08-31T06:53:01;27.50;;;22.90;;
3379;SDS011;1703;51.964;7.642;2023-08-31T06:55:29;28.60;;;22.97;;
3379;SDS011;1703;51.964;7.642;2023-08-31T06:57:57;26.17;;;22.37;;
3379;SDS011;1703;51.964;7.642;2023-08-31T07:00:23;39.80;;;25.40;;
3379;SDS011;1703;51.964;7.642;2023-08-31T07:02:51;30.77;;;22.37;;
3379;SDS011;1703;51.964;7.642;2023-08-31T07:05:18;29.73;;;24.23;;
3379;SDS011;1703;51.964;7.642;2023-08-31T07:07:52;35.97;;;23.63;;
3379;SDS011;1703;51.964;7.642;2023-08-31T07:10:19;33.67;;;25.57;;
3379;SDS011;1703;51.964;7.642;2023-08-31T07:12:46;35.53;;;24.43;;
3379;SDS011;1703;51.964;7.642;2023-08-31T07:15:13;32.50;;;23.90;;
3379;SDS011;1703;51.964;7.642;2023-08-31T07:17:40;28.67;;;21.67;;
3379;SDS011;1703;51.964;7.642;2023-08-31T07:20:07;29.30;;;24.30;;
3379;SDS011;1703;51.964;7.642;2023-08-31T07:22:35;26.67;;;21.70;;
3379;SDS011;1703;51.964;7.642;2023-08-31T07:25:03;33.83;;;23.03;;
3379;SDS011;1703;51.964;7.642;2023-08-31T07:27:35;35.30;;;21.97;;
3379;SDS011;1703;51.964;7.642;2023-08-31T07:30:02;31.50;;;21.43;;
3379;SDS011;1703;51.964;7.642;2023-08-31T07:32:30;33.77;;;22.47;;
3379;SDS011;1703;51.964;7.642;2023-08-31T07:34:57;24.37;;;20.10;;
3379;SDS011;1703;51.964;7.642;2023-08-31T07:37:24;36.50;;;25.00;;
3379;SDS011;1703;51.964;7.642;2023-08-31T07:39:51;32.47;;;21.87;;
3379;SDS011;1703;51.964;7.642;2023-08-31T07:42:19;28.23;;;21.07;;
3379;SDS011;1703;51.964;7.642;2023-08-31T07:44:46;22.80;;;19.60;;
3379;SDS011;1703;51.964;7.642;2023-08-31T07:47:13;28.43;;;20.47;;
3379;SDS011;1703;51.964;7.642;2023-08-31T07:49:40;27.90;;;19.17;;
3379;SDS011;1703;51.964;7.642;2023-08-31T07:52:07;21.00;;;17.67;;
3379;SDS011;1703;51.964;7.642;2023-08-31T07:54:33;26.60;;;18.03;;
3379;SDS011;1703;51.964;7.642;2023-08-31T07:57:00;20.07;;;16.27;;
3379;SDS011;1703;51.964;7.642;2023-08-31T07:59:29;28.23;;;17.03;;
3379;SDS011;1703;51.964;7.642;2023-08-31T08:01:55;23.97;;;15.97;;
3379;SDS011;1703;51.964;7.642;2023-08-31T08:04:22;19.73;;;14.93;;
3379;SDS011;1703;51.964;7.642;2023-08-31T08:06:51;22.03;;;16.03;;
3379;SDS011;1703;51.964;7.642;2023-08-31T08:09:17;16.03;;;13.27;;
3379;SDS011;1703;51.964;7.642;2023-08-31T08:11:44;22.13;;;13.73;;
3379;SDS011;1703;51.964;7.642;2023-08-31T08:14:11;20.53;;;13.30;;
3379;SDS011;1703;51.964;7.642;2023-08-31T08:16:39;17.40;;;10.80;;
3379;SDS011;1703;51.964;7.642;2023-08-31T08:19:06;18.50;;;10.83;;
3379;SDS011;1703;51.964;7.642;2023-08-31T08:21:33;16.33;;;10.60;;
3379;SDS011;1703;51.964;7.642;2023-08-31T08:24:00;10.30;;;9.13;;
3379;SDS011;1703;51.964;7.642;2023-08-31T08:26:28;12.50;;;8.63;;
3379;SDS011;1703;51.964;7.642;2023-08-31T08:28:54;13.47;;;8.77;;
3379;SDS011;1703;51.964;7.642;2023-08-31T08:31:21;12.20;;;7.97;;
3379;SDS011;1703;51.964;7.642;2023-08-31T08:33:49;9.83;;;8.13;;
3379;SDS011;1703;51.964;7.642;2023-08-31T08:36:16;13.17;;;8.60;;
3379;SDS011;1703;51.964;7.642;2023-08-31T08:38:43;11.40;;;7.87;;
3379;SDS011;1703;51.964;7.642;2023-08-31T08:41:09;14.73;;;7.90;;
3379;SDS011;1703;51.964;7.642;2023-08-31T08:43:36;12.63;;;7.60;;
3379;SDS011;1703;51.964;7.642;2023-08-31T08:46:07;8.60;;;7.07;;
3379;SDS011;1703;51.964;7.642;2023-08-31T08:48:35;11.47;;;6.47;;
3379;SDS011;1703;51.964;7.642;2023-08-31T08:51:05;6.93;;;6.30;;
3379;SDS011;1703;51.964;7.642;2023-08-31T08:53:33;8.10;;;6.23;;
3379;SDS011;1703;51.964;7.642;2023-08-31T08:56:03;7.97;;;7.17;;
3379;SDS011;1703;51.964;7.642;2023-08-31T08:58:30;8.40;;;6.20;;
3379;SDS011;1703;51.964;7.642;2023-08-31T09:00:57;6.20;;;5.13;;
3379;SDS011;1703;51.964;7.642;2023-08-31T09:03:23;5.90;;;5.23;;
3379;SDS011;1703;51.964;7.642;2023-08-31T09:05:50;10.63;;;6.50;;
3379;SDS011;1703;51.964;7.642;2023-08-31T09:08:24;12.90;;;6.30;;
3379;SDS011;1703;51.964;7.642;2023-08-31T09:10:51;6.90;;;5.53;;
3379;SDS011;1703;51.964;7.642;2023-08-31T09:13:18;14.77;;;5.60;;
3379;SDS011;1703;51.964;7.642;2023-08-31T09:15:45;8.57;;;4.97;;
3379;SDS011;1703;51.964;7.642;2023-08-31T09:18:13;9.10;;;5.00;;
3379;SDS011;1703;51.964;7.642;2023-08-31T09:20:45;8.90;;;5.93;;
3379;SDS011;1703;51.964;7.642;2023-08-31T09:23:13;6.63;;;4.53;;
3379;SDS011;1703;51.964;7.642;2023-08-31T09:25:45;9.00;;;6.00;;
3379;SDS011;1703;51.964;7.642;2023-08-31T09:28:14;5.40;;;4.90;;
3379;SDS011;1703;51.964;7.642;2023-08-31T09:30:41;14.37;;;5.90;;
3379;SDS011;1703;51.964;7.642;2023-08-31T09:33:08;5.83;;;4.50;;
3379;SDS011;1703;51.964;7.642;2023-08-31T09:35:38;6.37;;;4.90;;
3379;SDS011;1703;51.964;7.642;2023-08-31T09:38:09;8.10;;;5.37;;
3379;SDS011;1703;51.964;7.642;2023-08-31T09:40:36;6.80;;;4.60;;
3379;SDS011;1703;51.964;7.642;2023-08-31T09:43:05;10.13;;;4.37;;
3379;SDS011;1703;51.964;7.642;2023-08-31T09:45:32;6.57;;;3.60;;
3379;SDS011;1703;51.964;7.642;2023-08-31T09:48:01;4.10;;;3.27;;
3379;SDS011;1703;51.964;7.642;2023-08-31T09:50:29;3.40;;;3.10;;
3379;SDS011;1703;51.964;7.642;2023-08-31T09:52:58;3.53;;;3.20;;
3379;SDS011;1703;51.964;7.642;2023-08-31T09:55:29;3.80;;;3.27;;
3379;SDS011;1703;51.964;7.642;2023-08-31T09:57:57;4.40;;;2.70;;
3379;SDS011;1703;51.964;7.642;2023-08-31T10:00:28;6.80;;;2.80;;
3379;SDS011;1703;51.964;7.642;2023-08-31T10:02:56;8.70;;;2.30;;
3379;SDS011;1703;51.964;7.642;2023-08-31T10:05:26;2.90;;;2.50;;
3379;SDS011;1703;51.964;7.642;2023-08-31T10:07:53;3.50;;;2.97;;
3379;SDS011;1703;51.964;7.642;2023-08-31T10:10:20;4.23;;;2.70;;
3379;SDS011;1703;51.964;7.642;2023-08-31T10:12:49;4.73;;;2.00;;
3379;SDS011;1703;51.964;7.642;2023-08-31T10:15:17;2.70;;;2.20;;
3379;SDS011;1703;51.964;7.642;2023-08-31T10:17:45;2.77;;;2.03;;
3379;SDS011;1703;51.964;7.642;2023-08-31T10:20:13;3.30;;;1.90;;
3379;SDS011;1703;51.964;7.642;2023-08-31T10:22:42;4.83;;;2.17;;
3379;SDS011;1703;51.964;7.642;2023-08-31T10:25:09;6.80;;;2.40;;
3379;SDS011;1703;51.964;7.642;2023-08-31T10:27:37;10.10;;;2.03;;
3379;SDS011;1703;51.964;7.642;2023-08-31T10:33:03;6.87;;;1.87;;
3379;SDS011;1703;51.964;7.642;2023-08-31T10:35:50;3.80;;;2.30;;
3379;SDS011;1703;51.964;7.642;2023-08-31T10:38:25;4.50;;;1.67;;
3379;SDS011;1703;51.964;7.642;2023-08-31T10:43:45;2.00;;;1.90;;
3379;SDS011;1703;51.964;7.642;2023-08-31T10:46:17;8.70;;;2.17;;
3379;SDS011;1703;51.964;7.642;2023-08-31T10:48:51;2.93;;;1.50;;
3379;SDS011;1703;51.964;7.642;2023-08-31T10:51:21;4.10;;;1.63;;
3379;SDS011;1703;51.964;7.642;2023-08-31T10:53:48;2.80;;;1.20;;
3379;SDS011;1703;51.964;7.642;2023-08-31T10:56:15;1.57;;;1.00;;
3379;SDS011;1703;51.964;7.642;2023-08-31T10:58:43;1.97;;;1.13;;
3379;SDS011;1703;51.964;7.642;2023-08-31T11:04:19;6.00;;;1.30;;
3379;SDS011;1703;51.964;7.642;2023-08-31T11:06:46;4.27;;;1.13;;
3379;SDS011;1703;51.964;7.642;2023-08-31T11:09:18;3.40;;;2.40;;
3379;SDS011;1703;51.964;7.642;2023-08-31T11:11:45;3.30;;;1.50;;
3379;SDS011;1703;51.964;7.642;2023-08-31T11:14:12;3.93;;;1.40;;
3379;SDS011;1703;51.964;7.642;2023-08-31T11:16:40;3.63;;;1.40;;
3379;SDS011;1703;51.964;7.642;2023-08-31T11:19:08;1.57;;;1.10;;
3379;SDS011;1703;51.964;7.642;2023-08-31T11:21:37;3.10;;;1.57;;
3379;SDS011;1703;51.964;7.642;2023-08-31T11:24:04;2.60;;;1.17;;
3379;SDS011;1703;51.964;7.642;2023-08-31T11:26:31;3.90;;;1.13;;
3379;SDS011;1703;51.964;7.642;2023-08-31T11:28:59;3.73;;;1.60;;
3379;SDS011;1703;51.964;7.642;2023-08-31T11:31:26;3.87;;;1.50;;
3379;SDS011;1703;51.964;7.642;2023-08-31T11:33:53;2.30;;;1.40;;
3379;SDS011;1703;51.964;7.642;2023-08-31T11:36:20;2.37;;;1.20;;
3379;SDS011;1703;51.964;7.642;2023-08-31T11:38:49;2.90;;;1.30;;
3379;SDS011;1703;51.964;7.642;2023-08-31T11:41:16;1.53;;;1.40;;
3379;SDS011;1703;51.964;7.642;2023-08-31T11:43:43;2.67;;;2.47;;
3379;SDS011;1703;51.964;7.642;2023-08-31T11:46:10;4.80;;;1.10;;
3379;SDS011;1703;51.964;7.642;2023-08-31T11:48:37;2.03;;;1.23;;
3379;SDS011;1703;51.964;7.642;2023-08-31T11:51:05;6.80;;;1.50;;
3379;SDS011;1703;51.964;7.642;2023-08-31T11:53:32;3.37;;;1.80;;
3379;SDS011;1703;51.964;7.642;2023-08-31T11:56:02;2.10;;;1.30;;
3379;SDS011;1703;51.964;7.642;2023-08-31T11:58:29;2.20;;;1.40;;
3379;SDS011;1703;51.964;7.642;2023-08-31T12:00:56;2.93;;;1.00;;
3379;SDS011;1703;51.964;7.642;2023-08-31T12:03:24;4.17;;;1.50;;
3379;SDS011;1703;51.964;7.642;2023-08-31T12:05:51;7.80;;;1.40;;
3379;SDS011;1703;51.964;7.642;2023-08-31T12:08:25;1.93;;;1.60;;
3379;SDS011;1703;51.964;7.642;2023-08-31T12:10:52;7.70;;;1.87;;
3379;SDS011;1703;51.964;7.642;2023-08-31T12:13:25;3.03;;;1.73;;
3379;SDS011;1703;51.964;7.642;2023-08-31T12:15:53;3.03;;;2.10;;
3379;SDS011;1703;51.964;7.642;2023-08-31T12:18:21;3.83;;;2.00;;
3379;SDS011;1703;51.964;7.642;2023-08-31T12:20:49;4.03;;;2.13;;
3379;SDS011;1703;51.964;7.642;2023-08-31T12:23:17;7.60;;;2.70;;
3379;SDS011;1703;51.964;7.642;2023-08-31T12:25:47;3.90;;;2.30;;
3379;SDS011;1703;51.964;7.642;2023-08-31T12:28:14;9.77;;;2.60;;
3379;SDS011;1703;51.964;7.642;2023-08-31T12:30:48;5.20;;;2.30;;
3379;SDS011;1703;51.964;7.642;2023-08-31T12:33:15;3.80;;;3.10;;
3379;SDS011;1703;51.964;7.642;2023-08-31T12:35:42;4.73;;;3.07;;
3379;SDS011;1703;51.964;7.642;2023-08-31T12:38:09;3.20;;;2.90;;
3379;SDS011;1703;51.964;7.642;2023-08-31T12:40:37;6.17;;;2.90;;
3379;SDS011;1703;51.964;7.642;2023-08-31T12:43:04;7.83;;;3.20;;
3379;SDS011;1703;51.964;7.642;2023-08-31T12:45:31;2.30;;;2.03;;
3379;SDS011;1703;51.964;7.642;2023-08-31T12:47:59;3.80;;;2.17;;
3379;SDS011;1703;51.964;7.642;2023-08-31T12:50:26;1.70;;;1.60;;
3379;SDS011;1703;51.964;7.642;2023-08-31T12:52:53;1.37;;;1.20;;
3379;SDS011;1703;51.964;7.642;2023-08-31T12:55:20;1.93;;;1.33;;
3379;SDS011;1703;51.964;7.642;2023-08-31T12:57:46;3.10;;;1.77;;
3379;SDS011;1703;51.964;7.642;2023-08-31T13:00:14;1.47;;;1.37;;
3379;SDS011;1703;51.964;7.642;2023-08-31T13:02:42;3.30;;;1.70;;
3379;SDS011;1703;51.964;7.642;2023-08-31T13:05:11;5.03;;;1.70;;
3379;SDS011;1703;51.964;7.642;2023-08-31T13:07:38;6.77;;;1.47;;
3379;SDS011;1703;51.964;7.642;2023-08-31T13:10:05;1.70;;;1.60;;
3379;SDS011;1703;51.964;7.642;2023-08-31T13:12:33;4.93;;;1.90;;
3379;SDS011;1703;51.964;7.642;2023-08-31T13:15:02;2.83;;;2.33;;
3379;SDS011;1703;51.964;7.642;2023-08-31T13:17:29;5.30;;;2.17;;
3379;SDS011;1703;51.964;7.642;2023-08-31T13:19:56;2.80;;;2.40;;
3379;SDS011;1703;51.964;7.642;2023-08-31T13:22:25;3.07;;;2.47;;
3379;SDS011;1703;51.964;7.642;2023-08-31T13:24:52;3.27;;;2.80;;
3379;SDS011;1703;51.964;7.642;2023-08-31T13:27:18;5.70;;;2.80;;
3379;SDS011;1703;51.964;7.642;2023-08-31T13:29:45;4.47;;;2.10;;
3379;SDS011;1703;51.964;7.642;2023-08-31T13:32:12;3.40;;;2.47;;
3379;SDS011;1703;51.964;7.642;2023-08-31T13:34:39;3.77;;;3.47;;
3379;SDS011;1703;51.964;7.642;2023-08-31T13:37:06;5.77;;;3.80;;
3379;SDS011;1703;51.964;7.642;2023-08-31T13:39:35;5.40;;;3.90;;
3379;SDS011;1703;51.964;7.642;2023-08-31T13:42:03;6.80;;;4.03;;
3379;SDS011;1703;51.964;7.642;2023-08-31T13:44:31;4.10;;;3.70;;
3379;SDS011;1703;51.964;7.642;2023-08-31T13:46:58;7.10;;;3.70;;
3379;SDS011;1703;51.964;7.642;2023-08-31T13:49:25;7.63;;;4.20;;
3379;SDS011;1703;51.964;7.642;2023-08-31T13:51:52;6.23;;;3.93;;
3379;SDS011;1703;51.964;7.642;2023-08-31T13:54:18;2.57;;;2.47;;
3379;SDS011;1703;51.964;7.642;2023-08-31T13:56:47;6.83;;;3.40;;
3379;SDS011;1703;51.964;7.642;2023-08-31T13:59:15;6.53;;;3.67;;
3379;SDS011;1703;51.964;7.642;2023-08-31T14:01:42;6.43;;;3.20;;
3379;SDS011;1703;51.964;7.642;2023-08-31T14:04:08;4.17;;;2.90;;
3379;SDS011;1703;51.964;7.642;2023-08-31T14:06:35;6.70;;;2.70;;
3379;SDS011;1703;51.964;7.642;2023-08-31T14:09:02;2.67;;;2.33;;
3379;SDS011;1703;51.964;7.642;2023-08-31T14:11:30;5.73;;;2.63;;
3379;SDS011;1703;51.964;7.642;2023-08-31T14:14:02;9.83;;;3.07;;
3379;SDS011;1703;51.964;7.642;2023-08-31T14:16:31;8.13;;;2.50;;
3379;SDS011;1703;51.964;7.642;2023-08-31T14:19:01;4.77;;;3.30;;
3379;SDS011;1703;51.964;7.642;2023-08-31T14:21:28;4.00;;;2.70;;
3379;SDS011;1703;51.964;7.642;2023-08-31T14:23:55;4.40;;;3.07;;
3379;SDS011;1703;51.964;7.642;2023-08-31T14:26:22;6.70;;;3.20;;
3379;SDS011;1703;51.964;7.642;2023-08-31T14:28:52;5.60;;;2.73;;
3379;SDS011;1703;51.964;7.642;2023-08-31T14:31:22;4.90;;;3.10;;
3379;SDS011;1703;51.964;7.642;2023-08-31T14:33:51;5.97;;;3.23;;
3379;SDS011;1703;51.964;7.642;2023-08-31T14:36:20;3.27;;;2.87;;
3379;SDS011;1703;51.964;7.642;2023-08-31T14:38:47;3.63;;;2.07;;
3379;SDS011;1703;51.964;7.642;2023-08-31T14:41:14;4.00;;;1.57;;
3379;SDS011;1703;51.964;7.642;2023-08-31T14:43:41;4.23;;;2.20;;
3379;SDS011;1703;51.964;7.642;2023-08-31T14:46:07;4.67;;;1.90;;
3379;SDS011;1703;51.964;7.642;2023-08-31T14:48:35;2.93;;;2.03;;
3379;SDS011;1703;51.964;7.642;2023-08-31T14:51:02;7.30;;;3.37;;
3379;SDS011;1703;51.964;7.642;2023-08-31T14:53:29;5.17;;;2.67;;
3379;SDS011;1703;51.964;7.642;2023-08-31T14:55:56;7.70;;;4.20;;
3379;SDS011;1703;51.964;7.642;2023-08-31T14:58:23;5.93;;;3.60;;
3379;SDS011;1703;51.964;7.642;2023-08-31T15:00:49;4.60;;;3.50;;
3379;SDS011;1703;51.964;7.642;2023-08-31T15:03:16;3.93;;;3.60;;
3379;SDS011;1703;51.964;7.642;2023-08-31T15:05:47;6.13;;;3.60;;
3379;SDS011;1703;51.964;7.642;2023-08-31T15:08:14;3.77;;;2.77;;
3379;SDS011;1703;51.964;7.642;2023-08-31T15:10:41;6.80;;;3.83;;
3379;SDS011;1703;51.964;7.642;2023-08-31T15:13:08;5.63;;;2.80;;
3379;SDS011;1703;51.964;7.642;2023-08-31T15:15:34;3.53;;;3.20;;
3379;SDS011;1703;51.964;7.642;2023-08-31T15:18:01;4.97;;;4.13;;
3379;SDS011;1703;51.964;7.642;2023-08-31T15:20:29;4.40;;;3.13;;
3379;SDS011;1703;51.964;7.642;2023-08-31T15:22:57;6.60;;;3.50;;